首页
METAR-TAF:

METAR-TAF

机场 :

薩拉戈薩機場

萨拉戈萨, 西班牙

纬度: 41-40N, 经度: 001-01W, 海拔: 263米

当前天气观测

该预报发布于19分钟前的19:00 UTC
风速7节,风向西南
温度 11°C
湿度 66%
气压 1029 hPa
能见度10公里或以上
1500米以下无云,无积雨云

METAR: LEZG 211900Z 22007KT CAVOK 11/05 Q1029

时间: 20:19 (19:19 UTC)

预报

该预报发布于2小时和19分钟前的17:00 UTC
预报有效从21日的 18点(UTC)到 22日的 18点(UTC)
风速5节,风向西
能见度10公里或以上
1500米以下无云,无积雨云

TAF: LEZG 211700Z 2118/2218 27005KT CAVOK TX19/2213Z TN03/2206Z

超过4000个机场的气象观测和天气预报(METAR&TAF报告)。

可查询的气象台以黄色和红色小点在地图上表示。

将鼠标移到小点上方,可查看气象台名称。

然后点击查看天气观测和预报。

如需切换地图:点击带黑十字的绿色按钮放大地图;点击带横线的绿色按钮缩小地图;或者点击绿色箭头查看邻近地区的地图。


METAR-TAF: